Time;durP1;ratioP1;P1;durP2;ratioP2;P2;SDS_P1;SDS_P2;PMS_P1;PMS_P2;Temp;Humidity;BMP_temperature;BMP_pressure;BME280_temperature;BME280_humidity;BME280_pressure;Samples;Min_cycle;Max_cycle;Signal;HPM_P1;HPM_P2
2022/08/11 00:00:21;;;;;;;2.55;2.02;;;21.30;42.50;;;;;;983981;145;27381;-75
2022/08/11 00:02:51;;;;;;;3.25;1.95;;;21.20;42.70;;;;;;983473;145;27424;-75
2022/08/11 00:05:18;;;;;;;2.15;1.90;;;21.10;43.00;;;;;;984829;145;27307;-75
2022/08/11 00:07:44;;;;;;;2.00;1.90;;;21.00;43.20;;;;;;985100;145;27319;-75
2022/08/11 00:10:11;;;;;;;2.55;2.27;;;21.00;43.50;;;;;;984633;145;27280;-75
2022/08/11 00:12:37;;;;;;;3.35;2.10;;;20.90;43.60;;;;;;984365;145;27274;-75
2022/08/11 00:15:04;;;;;;;2.22;2.02;;;20.80;43.80;;;;;;986402;145;27306;-75
2022/08/11 00:17:30;;;;;;;2.27;2.02;;;20.70;43.90;;;;;;987516;145;27410;-75
2022/08/11 00:20:07;;;;;;;3.22;2.12;;;20.60;44.10;;;;;;985412;145;27323;-75
2022/08/11 00:22:33;;;;;;;3.77;2.05;;;20.60;44.30;;;;;;982069;145;27332;-75
2022/08/11 00:24:59;;;;;;;2.30;2.10;;;20.50;44.40;;;;;;985368;145;27387;-75
2022/08/11 00:27:32;;;;;;;1.95;1.77;;;20.40;44.60;;;;;;982875;145;27293;-75
2022/08/11 00:29:58;;;;;;;2.50;2.27;;;20.30;44.80;;;;;;983240;145;27291;-75
2022/08/11 00:32:25;;;;;;;2.12;1.90;;;20.30;44.90;;;;;;986201;145;27323;-75
2022/08/11 00:34:51;;;;;;;2.00;1.90;;;20.20;45.00;;;;;;974442;145;28031;-75
2022/08/11 00:37:18;;;;;;;2.15;2.02;;;20.10;45.20;;;;;;974000;146;27300;-75
2022/08/11 00:39:48;;;;;;;3.08;2.42;;;20.10;45.30;;;;;;976011;146;27231;-75
2022/08/11 00:42:45;;;;;;;2.02;1.90;;;20.00;45.40;;;;;;974266;146;27378;-75
2022/08/11 00:45:23;;;;;;;2.33;2.02;;;19.90;45.50;;;;;;974849;146;27748;-75
2022/08/11 00:48:05;;;;;;;2.08;1.98;;;19.90;45.50;;;;;;973826;146;27428;-75
2022/08/11 00:50:35;;;;;;;2.87;2.10;;;19.80;45.60;;;;;;975549;146;27427;-75
2022/08/11 00:53:25;;;;;;;2.25;2.05;;;19.70;45.80;;;;;;972151;146;27300;-75
2022/08/11 00:56:06;;;;;;;2.25;2.15;;;19.70;46.10;;;;;;972778;146;27318;-76
2022/08/11 00:59:06;;;;;;;4.12;2.30;;;19.60;46.00;;;;;;956133;146;27327;-75
2022/08/11 01:01:36;;;;;;;2.05;1.92;;;19.60;46.30;;;;;;975401;146;27434;-76
2022/08/11 01:04:16;;;;;;;2.55;2.30;;;19.50;46.30;;;;;;974627;146;27312;-76
2022/08/11 01:06:50;;;;;;;3.37;2.10;;;19.50;46.60;;;;;;975665;146;27788;-75
2022/08/11 01:09:35;;;;;;;2.62;2.42;;;19.40;46.70;;;;;;975745;146;27308;-75
2022/08/11 01:12:14;;;;;;;2.55;2.35;;;19.40;46.90;;;;;;974788;146;27296;-75
2022/08/11 01:14:52;;;;;;;2.60;2.40;;;19.40;47.00;;;;;;975192;146;27416;-75
2022/08/11 01:17:40;;;;;;;3.92;2.62;;;19.40;47.10;;;;;;973232;146;27359;-75
2022/08/11 01:20:30;;;;;;;2.37;2.17;;;19.30;47.10;;;;;;974605;146;27320;-74
2022/08/11 01:23:21;;;;;;;2.50;2.30;;;19.30;47.10;;;;;;973578;146;27293;-75
2022/08/11 01:26:15;;;;;;;2.77;2.35;;;19.30;47.10;;;;;;973415;146;27297;-75
2022/08/11 01:29:03;;;;;;;3.25;2.50;;;19.30;47.10;;;;;;974722;146;27295;-75
2022/08/11 01:31:38;;;;;;;2.20;2.05;;;19.20;47.20;;;;;;971236;146;27353;-75
2022/08/11 01:34:14;;;;;;;2.30;2.10;;;19.20;47.20;;;;;;949088;145;27340;-75
2022/08/11 01:36:44;;;;;;;3.25;2.25;;;19.20;47.40;;;;;;957528;148;27318;-75
2022/08/11 01:39:31;;;;;;;2.30;2.08;;;19.20;47.70;;;;;;919828;151;27320;-75
2022/08/11 01:45:36;;;;;;;2.37;2.17;;;19.10;47.80;;;;;;938905;151;27329;-76
2022/08/11 01:48:14;;;;;;;2.92;2.55;;;19.10;47.70;;;;;;966370;148;27226;-75
2022/08/11 01:50:55;;;;;;;2.15;2.05;;;19.10;47.80;;;;;;965884;148;27289;-76
2022/08/11 01:53:28;;;;;;;2.33;2.00;;;19.00;48.00;;;;;;966841;146;27343;-76
2022/08/11 01:55:57;;;;;;;2.77;2.50;;;19.00;48.20;;;;;;963675;148;27352;-74
2022/08/11 01:58:42;;;;;;;3.00;2.70;;;19.00;48.40;;;;;;952887;150;27354;-75
2022/08/11 02:01:11;;;;;;;2.83;2.42;;;19.00;48.60;;;;;;959460;148;27298;-75
2022/08/11 02:03:56;;;;;;;2.33;2.22;;;19.00;48.50;;;;;;937662;151;27328;-75
2022/08/11 02:09:28;;;;;;;2.67;2.45;;;18.90;48.60;;;;;;915458;151;27227;-75
2022/08/11 02:11:55;;;;;;;4.60;2.37;;;18.90;48.60;;;;;;943417;151;27265;-75
2022/08/11 02:14:24;;;;;;;3.10;2.87;;;18.80;48.80;;;;;;939248;151;27792;-75
2022/08/11 02:17:09;;;;;;;2.83;2.58;;;18.80;49.00;;;;;;961283;148;27323;-75
2022/08/11 02:25:38;;;;;;;3.15;2.95;;;18.80;49.00;;;;;;940362;151;27464;-74
2022/08/11 02:28:10;;;;;;;3.30;3.00;;;18.70;49.00;;;;;;934489;152;27458;-75
2022/08/11 02:30:36;;;;;;;4.13;3.10;;;18.70;49.20;;;;;;939586;151;27496;-75
2022/08/11 02:33:24;;;;;;;3.27;2.98;;;18.60;49.30;;;;;;939820;151;27405;-74
2022/08/11 02:36:03;;;;;;;5.05;2.95;;;18.60;49.50;;;;;;945498;150;27404;-74
2022/08/11 02:38:32;;;;;;;3.47;2.58;;;18.60;49.50;;;;;;959596;146;27289;-74
2022/08/11 02:44:32;;;;;;;3.60;2.60;;;18.50;49.80;;;;;;941748;150;27805;-76
2022/08/11 02:47:17;;;;;;;3.08;2.50;;;18.50;49.70;;;;;;947693;150;27257;-76
2022/08/11 02:49:55;;;;;;;2.33;2.12;;;18.40;49.80;;;;;;941803;150;27335;-76
2022/08/11 02:52:52;;;;;;;2.60;2.40;;;18.40;49.90;;;;;;942379;150;27472;-76
2022/08/11 02:55:21;;;;;;;2.92;2.35;;;18.40;49.90;;;;;;941173;150;27366;-75
2022/08/11 02:57:48;;;;;;;2.58;2.37;;;18.30;49.80;;;;;;946704;150;27255;-74
2022/08/11 03:00:14;;;;;;;2.70;2.50;;;18.30;49.70;;;;;;959865;148;27185;-75
2022/08/11 03:02:53;;;;;;;2.52;2.33;;;18.30;50.20;;;;;;942118;150;27347;-75
2022/08/11 03:05:38;;;;;;;3.10;2.80;;;18.20;50.30;;;;;;969063;146;27451;-75
2022/08/11 03:08:11;;;;;;;2.57;2.37;;;18.20;50.30;;;;;;975089;146;27333;-77
2022/08/11 03:16:43;;;;;;;5.67;2.30;;;18.20;50.30;;;;;;975801;146;27309;-75
2022/08/11 03:19:31;;;;;;;3.83;2.80;;;18.10;50.40;;;;;;975498;146;27312;-75
2022/08/11 03:22:18;;;;;;;2.50;2.30;;;18.10;50.40;;;;;;956464;146;27312;-75
2022/08/11 03:25:00;;;;;;;4.33;2.50;;;18.00;50.50;;;;;;973723;146;27336;-75
2022/08/11 03:27:33;;;;;;;2.92;2.62;;;18.00;50.60;;;;;;973514;146;27332;-75
2022/08/11 03:30:01;;;;;;;3.80;3.00;;;17.90;50.80;;;;;;976010;146;27404;-75
2022/08/11 03:32:40;;;;;;;3.67;3.30;;;17.90;50.90;;;;;;976677;146;27394;-75
2022/08/11 03:35:07;;;;;;;3.42;3.10;;;17.90;51.10;;;;;;974155;145;28012;-75
2022/08/11 03:37:52;;;;;;;5.30;3.60;;;17.80;51.10;;;;;;975498;146;27401;-75
2022/08/11 03:43:03;;;;;;;3.77;3.05;;;17.80;51.40;;;;;;976387;146;27846;-75
2022/08/11 03:45:36;;;;;;;3.30;3.00;;;17.70;51.30;;;;;;967495;146;27381;-75
2022/08/11 03:48:17;;;;;;;3.50;3.20;;;17.70;51.60;;;;;;966226;146;28632;-75
2022/08/11 03:51:14;;;;;;;3.57;2.60;;;17.70;51.70;;;;;;975206;146;27349;-75
2022/08/11 03:53:47;;;;;;;3.83;2.57;;;17.60;51.70;;;;;;973738;146;27368;-75
2022/08/11 03:56:25;;;;;;;2.90;2.63;;;17.60;51.70;;;;;;974032;146;27412;-74
2022/08/11 03:59:04;;;;;;;2.77;2.58;;;17.60;51.80;;;;;;970655;146;27283;-74
2022/08/11 04:01:39;;;;;;;3.50;2.87;;;17.50;51.90;;;;;;975387;146;27295;-75
2022/08/11 04:04:24;;;;;;;5.13;2.67;;;17.50;52.00;;;;;;911258;150;27292;-75
2022/08/11 04:07:08;;;;;;;2.60;2.40;;;17.50;52.20;;;;;;972735;146;27867;-75
2022/08/11 04:10:05;;;;;;;2.83;2.60;;;17.40;52.40;;;;;;975144;146;27332;-75
2022/08/11 04:12:56;;;;;;;3.02;2.83;;;17.40;52.30;;;;;;974408;146;27322;-74
2022/08/11 04:18:29;;;;;;;2.90;2.60;;;17.30;52.40;;;;;;975389;146;27309;-74
2022/08/11 04:21:07;;;;;;;3.53;2.70;;;17.30;52.50;;;;;;973057;146;27834;-74
2022/08/11 04:24:04;;;;;;;3.33;2.40;;;17.30;52.70;;;;;;973568;146;27281;-74
2022/08/11 04:26:52;;;;;;;2.83;2.50;;;17.30;52.90;;;;;;975529;146;27319;-74
2022/08/11 04:29:59;;;;;;;3.13;2.50;;;17.20;52.90;;;;;;973901;146;27312;-74
2022/08/11 04:32:22;;;;;;;2.80;2.60;;;17.20;52.90;;;;;;972207;146;27831;-75
2022/08/11 04:35:07;;;;;;;2.43;2.33;;;17.20;53.00;;;;;;974729;146;27312;-75
2022/08/11 04:37:58;;;;;;;2.40;2.30;;;17.20;53.30;;;;;;976045;146;27312;-75
2022/08/11 04:40:33;;;;;;;2.90;2.70;;;17.20;53.50;;;;;;973202;146;27358;-75
2022/08/11 04:43:27;;;;;;;2.87;2.63;;;17.30;53.60;;;;;;974329;146;27287;-75
2022/08/11 04:46:06;;;;;;;2.87;2.67;;;17.30;53.80;;;;;;975527;146;27305;-75
2022/08/11 05:04:04;;;;;;;2.80;2.60;;;17.70;53.90;;;;;;974219;146;27309;-75
2022/08/11 05:06:30;;;;;;;2.98;2.75;;;17.80;54.20;;;;;;973802;146;27414;-75
2022/08/11 05:09:03;;;;;;;3.72;2.83;;;18.10;54.80;;;;;;969605;146;27734;-74
2022/08/11 05:11:35;;;;;;;3.20;2.90;;;18.40;55.30;;;;;;973551;146;27404;-74
2022/08/11 05:36:50;;;;;;;3.60;2.47;;;25.30;51.30;;;;;;950966;145;27352;-75
2022/08/11 05:58:41;;;;;;;3.50;2.37;;;31.50;44.40;;;;;;981932;145;27389;-76
2022/08/11 06:01:07;;;;;;;4.97;2.40;;;32.20;43.50;;;;;;982834;145;27306;-76
2022/08/11 06:04:12;;;;;;;5.35;2.45;;;32.80;42.40;;;;;;982699;145;27297;-76
2022/08/11 06:06:03;;;;;;;2.25;2.08;;;33.30;41.40;;;;;;980065;145;27332;-76
2022/08/11 06:08:30;;;;;;;2.15;1.90;;;33.80;40.60;;;;;;980024;145;27331;-76
2022/08/11 06:11:00;;;;;;;2.92;2.25;;;34.20;39.70;;;;;;983921;145;27300;-76
2022/08/11 06:13:26;;;;;;;2.02;1.75;;;34.60;39.20;;;;;;983370;145;27788;-76
2022/08/11 06:15:54;;;;;;;2.77;2.10;;;35.10;38.80;;;;;;983098;145;27300;-76
2022/08/11 06:18:19;;;;;;;2.77;2.12;;;35.50;38.30;;;;;;982586;145;27666;-76
2022/08/11 06:20:52;;;;;;;2.12;1.87;;;36.10;37.80;;;;;;981901;145;27056;-76
2022/08/11 06:23:19;;;;;;;5.12;2.37;;;36.50;37.10;;;;;;982426;145;26198;-77
2022/08/11 06:25:44;;;;;;;2.72;2.17;;;37.00;36.60;;;;;;980763;145;26358;-77
2022/08/11 06:28:11;;;;;;;3.77;2.20;;;37.50;36.00;;;;;;980430;145;26220;-77
2022/08/11 06:30:41;;;;;;;3.33;2.05;;;37.90;35.30;;;;;;981888;145;26317;-76
2022/08/11 06:33:16;;;;;;;2.98;2.00;;;38.30;34.70;;;;;;981935;145;26303;-76
2022/08/11 06:35:51;;;;;;;1.92;1.67;;;38.60;34.10;;;;;;956874;145;26148;-76
2022/08/11 06:38:39;;;;;;;2.15;1.98;;;39.00;33.80;;;;;;983748;145;26363;-76
2022/08/11 06:43:56;;;;;;;2.72;1.87;;;39.70;33.00;;;;;;985785;145;27685;-76
2022/08/11 06:46:29;;;;;;;2.75;1.95;;;40.10;32.70;;;;;;984914;145;26234;-76
2022/08/11 06:48:55;;;;;;;2.12;1.98;;;40.50;32.30;;;;;;985211;145;27323;-76
2022/08/11 06:51:22;;;;;;;4.17;1.80;;;40.80;31.80;;;;;;986207;145;26198;-76
2022/08/11 06:53:51;;;;;;;4.15;2.15;;;41.20;31.40;;;;;;985444;145;27417;-76
2022/08/11 07:01:46;;;;;;;3.87;1.60;;;42.40;30.00;;;;;;986427;145;26240;-76
2022/08/11 07:04:10;;;;;;;3.40;1.52;;;42.80;29.80;;;;;;985396;145;26280;-77
2022/08/11 07:15:41;;;;;;;2.35;1.70;;;44.40;28.40;;;;;;934275;150;26353;-77
2022/08/11 07:29:06;;;;;;;1.52;1.42;;;46.00;26.70;;;;;;937571;150;26274;-77
2022/08/11 07:31:49;;;;;;;1.40;1.30;;;46.20;26.20;;;;;;936133;150;26613;-77
2022/08/11 07:34:32;;;;;;;3.08;2.05;;;46.40;25.90;;;;;;934180;150;26261;-77
2022/08/11 07:36:59;;;;;;;1.45;1.35;;;46.60;25.80;;;;;;935394;150;27909;-77
2022/08/11 07:39:29;;;;;;;1.55;1.45;;;46.80;25.50;;;;;;935539;150;26181;-77
2022/08/11 07:41:55;;;;;;;2.92;1.47;;;47.00;24.70;;;;;;905195;156;26353;-77
2022/08/11 07:44:24;;;;;;;2.80;1.40;;;47.20;25.10;;;;;;904921;156;26420;-77
2022/08/11 07:54:45;;;;;;;2.08;1.52;;;48.20;24.30;;;;;;892353;155;26471;-77
2022/08/11 08:19:12;;;;;;;2.05;1.20;;;48.90;22.80;;;;;;907171;155;26474;-78
2022/08/11 08:21:38;;;;;;;1.35;1.25;;;49.10;22.80;;;;;;907350;155;26347;-78
2022/08/11 08:24:05;;;;;;;1.80;1.50;;;49.10;22.50;;;;;;907178;155;26343;-78
2022/08/11 08:32:01;;;;;;;1.40;1.30;;;49.60;22.10;;;;;;907556;155;26338;-78
2022/08/11 08:34:28;;;;;;;2.37;1.40;;;49.90;21.90;;;;;;907472;155;26327;-78
2022/08/11 08:36:55;;;;;;;2.55;1.40;;;50.10;21.60;;;;;;907276;155;26327;-78
2022/08/11 08:39:21;;;;;;;2.52;1.35;;;50.30;21.40;;;;;;907320;155;26414;-78
2022/08/11 08:41:50;;;;;;;3.52;1.25;;;50.50;21.20;;;;;;907221;155;26352;-78
2022/08/11 08:44:17;;;;;;;1.75;1.42;;;50.50;20.90;;;;;;906408;155;26234;-78
2022/08/11 08:46:44;;;;;;;2.05;1.40;;;50.50;20.60;;;;;;906773;155;26308;-78
2022/08/11 08:49:10;;;;;;;3.25;1.20;;;50.30;20.60;;;;;;906936;155;26368;-78
2022/08/11 08:51:37;;;;;;;1.75;1.20;;;50.00;20.60;;;;;;906819;155;26324;-78
2022/08/11 08:54:06;;;;;;;1.47;1.35;;;49.80;20.60;;;;;;906479;155;26344;-78
2022/08/11 08:56:33;;;;;;;1.27;1.27;;;49.50;20.60;;;;;;906783;155;26592;-78
2022/08/11 08:58:59;;;;;;;1.45;1.17;;;49.30;20.60;;;;;;907116;155;26378;-78
2022/08/11 09:01:26;;;;;;;1.60;1.20;;;49.10;20.60;;;;;;907353;155;26422;-78
2022/08/11 09:03:52;;;;;;;3.55;1.20;;;48.90;20.70;;;;;;906993;155;26426;-78
2022/08/11 09:06:19;;;;;;;1.75;1.32;;;48.80;20.80;;;;;;907275;155;26371;-78
2022/08/11 09:08:46;;;;;;;1.30;1.20;;;48.60;20.70;;;;;;907807;155;26342;-78
2022/08/11 09:13:57;;;;;;;1.30;1.20;;;48.30;20.60;;;;;;907391;155;26462;-78
2022/08/11 09:16:23;;;;;;;1.27;1.17;;;48.20;20.60;;;;;;907720;155;26356;-78
2022/08/11 09:18:50;;;;;;;1.42;1.35;;;47.90;20.60;;;;;;907099;155;26280;-78
2022/08/11 09:21:19;;;;;;;1.42;1.15;;;47.70;20.70;;;;;;907226;155;26393;-78
2022/08/11 09:29:13;;;;;;;1.65;1.10;;;47.00;20.40;;;;;;907813;155;26348;-77
2022/08/11 09:31:39;;;;;;;2.17;1.40;;;46.60;20.50;;;;;;907609;155;26426;-76
2022/08/11 09:34:06;;;;;;;2.62;1.30;;;46.20;20.40;;;;;;906945;155;26319;-76
2022/08/11 09:42:02;;;;;;;1.30;1.20;;;45.10;20.80;;;;;;907107;155;26360;-77
2022/08/11 09:44:47;;;;;;;2.22;1.20;;;44.70;20.90;;;;;;907493;155;26450;-76
2022/08/11 09:47:17;;;;;;;1.32;1.25;;;44.30;20.90;;;;;;907356;155;26344;-77
2022/08/11 09:49:43;;;;;;;1.67;1.35;;;43.90;21.10;;;;;;905345;155;26344;-76
2022/08/11 09:52:09;;;;;;;1.27;1.15;;;43.70;21.10;;;;;;906536;155;28133;-76
2022/08/11 09:54:36;;;;;;;1.65;1.50;;;43.30;21.20;;;;;;908069;155;26432;-76
2022/08/11 09:59:48;;;;;;;4.00;1.20;;;42.60;21.40;;;;;;907498;155;26705;-76
2022/08/11 10:02:14;;;;;;;1.20;1.00;;;42.40;21.60;;;;;;908194;155;26438;-76
2022/08/11 10:04:47;;;;;;;2.45;1.30;;;42.10;21.80;;;;;;907774;155;26406;-76
2022/08/11 10:07:14;;;;;;;2.33;1.30;;;41.80;21.70;;;;;;906949;155;26390;-77
2022/08/11 10:09:51;;;;;;;1.77;1.30;;;41.60;21.90;;;;;;906757;155;26846;-77
2022/08/11 10:12:26;;;;;;;1.37;1.27;;;41.40;22.00;;;;;;906710;155;27403;-76
2022/08/11 10:17:37;;;;;;;1.82;1.52;;;40.90;22.10;;;;;;907607;155;26292;-76
2022/08/11 10:20:06;;;;;;;1.60;1.50;;;40.60;22.10;;;;;;907147;155;26308;-77
2022/08/11 10:28:01;;;;;;;1.60;1.50;;;39.60;22.20;;;;;;907143;155;26352;-75
2022/08/11 10:35:57;;;;;;;2.37;1.40;;;38.30;22.60;;;;;;907203;155;27903;-76
2022/08/11 10:38:23;;;;;;;1.67;1.52;;;37.80;22.60;;;;;;907706;155;27381;-76
2022/08/11 10:43:01;;;;;;;1.55;1.45;;;37.40;23.10;;;;;;907239;155;27477;-76
2022/08/11 10:43:16;;;;;;;1.67;1.57;;;37.00;23.30;;;;;;904166;155;27429;-76
2022/08/11 10:48:28;;;;;;;1.72;1.62;;;36.40;23.60;;;;;;907459;155;27468;-75
2022/08/11 10:51:13;;;;;;;1.62;1.52;;;36.20;23.80;;;;;;906323;155;27492;-77
2022/08/11 10:59:14;;;;;;;1.62;1.52;;;35.30;24.30;;;;;;906244;155;27475;-76
2022/08/11 11:01:42;;;;;;;2.27;2.17;;;35.10;24.50;;;;;;906998;155;27760;-76
2022/08/11 11:04:10;;;;;;;2.20;1.77;;;34.80;24.50;;;;;;907065;155;27405;-75
2022/08/11 11:06:52;;;;;;;2.75;1.55;;;34.60;24.70;;;;;;907198;155;27425;-76
2022/08/11 11:09:29;;;;;;;2.35;1.80;;;34.50;25.00;;;;;;907273;155;27449;-76
2022/08/11 11:20:15;;;;;;;1.62;1.47;;;34.00;25.50;;;;;;907412;155;27564;-75
2022/08/11 11:22:41;;;;;;;1.70;1.60;;;34.00;25.50;;;;;;906679;155;27511;-76
2022/08/11 11:25:19;;;;;;;1.77;1.67;;;33.90;25.60;;;;;;907377;155;27432;-75
2022/08/11 11:28:04;;;;;;;1.87;1.60;;;33.80;25.70;;;;;;907423;155;27466;-75
2022/08/11 11:30:48;;;;;;;2.27;1.90;;;33.70;25.70;;;;;;906515;155;27378;-75
2022/08/11 11:33:20;;;;;;;4.33;1.90;;;33.60;25.80;;;;;;884989;155;27472;-76
2022/08/11 11:35:56;;;;;;;1.82;1.72;;;33.60;26.00;;;;;;906447;155;27429;-75
2022/08/11 11:38:23;;;;;;;3.52;2.40;;;33.50;26.10;;;;;;905562;155;28742;-75
2022/08/11 11:41:23;;;;;;;2.30;2.10;;;33.50;26.30;;;;;;907907;155;27449;-75
2022/08/11 11:43:16;;;;;;;1.82;1.72;;;33.50;26.30;;;;;;905456;155;27397;-75
2022/08/11 11:45:42;;;;;;;1.90;1.80;;;33.40;26.40;;;;;;907398;155;27856;-76
2022/08/11 11:48:09;;;;;;;4.53;1.90;;;33.40;26.40;;;;;;907119;155;27445;-76
2022/08/11 11:50:35;;;;;;;2.20;1.70;;;33.40;26.40;;;;;;906923;155;27422;-75
2022/08/11 11:53:05;;;;;;;1.77;1.67;;;33.50;26.50;;;;;;907262;155;27473;-75
2022/08/11 11:55:31;;;;;;;1.87;1.70;;;33.40;26.40;;;;;;906459;155;27485;-75
2022/08/11 12:03:30;;;;;;;2.30;1.75;;;33.40;26.50;;;;;;906568;155;27417;-77
2022/08/11 12:05:57;;;;;;;1.80;1.70;;;33.40;26.50;;;;;;906685;155;27525;-76
2022/08/11 12:08:24;;;;;;;1.90;1.80;;;33.40;26.50;;;;;;906959;155;27526;-76
2022/08/11 12:16:05;;;;;;;5.40;1.77;;;33.20;26.60;;;;;;907116;155;27441;-75
2022/08/11 12:18:34;;;;;;;2.10;1.82;;;33.20;26.60;;;;;;907019;155;27433;-76
2022/08/11 12:21:00;;;;;;;2.70;1.77;;;33.20;26.60;;;;;;906606;155;27390;-75
2022/08/11 12:28:59;;;;;;;1.82;1.70;;;33.10;26.40;;;;;;906267;155;27436;-75
2022/08/11 12:31:24;;;;;;;2.02;1.72;;;33.10;26.40;;;;;;907141;155;27510;-76
2022/08/11 12:33:50;;;;;;;6.35;1.80;;;33.10;26.40;;;;;;907099;155;27599;-76
2022/08/11 12:36:17;;;;;;;2.27;1.75;;;33.00;26.40;;;;;;906662;155;27405;-76
2022/08/11 12:38:44;;;;;;;1.75;1.65;;;33.00;26.40;;;;;;907008;155;27922;-76
2022/08/11 12:46:39;;;;;;;1.75;1.47;;;33.10;26.40;;;;;;907171;155;27532;-76
2022/08/11 12:52:00;;;;;;;2.00;1.47;;;33.00;26.30;;;;;;906425;155;27503;-75
2022/08/11 12:54:56;;;;;;;1.70;1.60;;;33.10;26.20;;;;;;906542;155;27648;-76
2022/08/11 13:05:46;;;;;;;2.65;1.57;;;33.00;26.30;;;;;;907638;155;27519;-75
2022/08/11 13:08:15;;;;;;;1.70;1.60;;;33.00;26.30;;;;;;906525;155;27527;-76
2022/08/11 13:13:26;;;;;;;2.15;1.80;;;33.10;26.30;;;;;;907885;155;27508;-75
2022/08/11 13:15:53;;;;;;;1.45;1.35;;;33.10;26.30;;;;;;905042;155;28372;-75
2022/08/11 13:18:21;;;;;;;1.60;1.50;;;33.20;25.80;;;;;;905442;156;27502;-74
2022/08/11 13:20:47;;;;;;;2.22;1.37;;;33.20;26.20;;;;;;905397;156;27541;-76
2022/08/11 13:23:12;;;;;;;3.90;1.57;;;33.20;26.10;;;;;;904676;156;27417;-76
2022/08/11 13:25:39;;;;;;;1.55;1.45;;;33.20;26.10;;;;;;904009;156;27414;-77
2022/08/11 13:28:06;;;;;;;1.95;1.65;;;33.20;26.00;;;;;;903451;156;27430;-76
2022/08/11 13:33:17;;;;;;;1.62;1.52;;;33.20;25.80;;;;;;903044;156;27409;-76
2022/08/11 13:35:49;;;;;;;2.72;1.62;;;33.30;25.90;;;;;;903494;156;27414;-76
2022/08/11 13:38:13;;;;;;;1.67;1.57;;;33.30;26.00;;;;;;902971;156;27507;-76
2022/08/11 13:40:39;;;;;;;2.02;1.40;;;33.30;25.90;;;;;;903986;156;27925;-76
2022/08/11 13:43:06;;;;;;;2.00;1.30;;;33.30;26.00;;;;;;902570;156;27426;-76
2022/08/11 13:45:33;;;;;;;1.65;1.55;;;33.30;25.90;;;;;;903901;156;27475;-75
2022/08/11 13:47:59;;;;;;;2.02;1.67;;;33.30;26.20;;;;;;903676;156;27456;-76
2022/08/11 13:53:14;;;;;;;1.72;1.62;;;33.30;26.00;;;;;;904130;156;27452;-76
2022/08/11 13:55:40;;;;;;;3.52;2.22;;;33.30;26.00;;;;;;904173;156;27442;-76
2022/08/11 13:58:07;;;;;;;2.22;1.60;;;33.30;26.10;;;;;;903418;156;27405;-76
2022/08/11 14:00:33;;;;;;;1.82;1.62;;;33.30;26.20;;;;;;903284;156;27859;-75
2022/08/11 14:03:00;;;;;;;2.12;1.70;;;33.30;26.20;;;;;;903669;156;27474;-76
2022/08/11 14:05:27;;;;;;;1.50;1.40;;;33.30;26.30;;;;;;904929;156;27743;-76
2022/08/11 14:07:59;;;;;;;2.47;1.77;;;33.40;26.20;;;;;;904119;156;27535;-76
2022/08/11 14:10:25;;;;;;;1.70;1.60;;;33.40;26.30;;;;;;903132;156;27412;-75
2022/08/11 14:15:46;;;;;;;2.35;2.15;;;33.50;26.20;;;;;;904883;155;27422;-76
2022/08/11 14:18:18;;;;;;;1.72;1.62;;;33.50;26.20;;;;;;906753;155;27457;-76
2022/08/11 14:23:32;;;;;;;3.02;1.70;;;33.60;26.30;;;;;;906578;155;27528;-75
2022/08/11 14:28:43;;;;;;;3.47;1.72;;;33.60;26.40;;;;;;906236;155;27961;-76
2022/08/11 14:31:10;;;;;;;2.60;1.87;;;33.60;26.40;;;;;;906836;155;27417;-77
2022/08/11 14:33:36;;;;;;;1.52;1.42;;;33.70;26.40;;;;;;907258;155;27393;-76
2022/08/11 14:36:04;;;;;;;2.00;1.90;;;33.70;26.40;;;;;;907305;155;27468;-75
2022/08/11 14:38:29;;;;;;;2.17;1.92;;;33.60;26.40;;;;;;906794;155;27424;-75
2022/08/11 14:49:11;;;;;;;3.50;1.60;;;33.60;26.30;;;;;;906061;155;27509;-75
2022/08/11 14:51:37;;;;;;;5.17;1.75;;;33.50;26.20;;;;;;906751;155;27487;-75
2022/08/11 14:56:48;;;;;;;1.82;1.72;;;33.50;26.30;;;;;;906884;155;27405;-75
2022/08/11 14:59:15;;;;;;;1.80;1.60;;;33.50;26.30;;;;;;906841;155;27435;-75
2022/08/11 15:04:26;;;;;;;2.65;1.60;;;33.40;26.40;;;;;;906745;155;27437;-75
2022/08/11 15:06:53;;;;;;;3.92;1.70;;;33.40;26.40;;;;;;907061;155;27428;-75
2022/08/11 15:09:20;;;;;;;2.33;1.77;;;33.40;26.50;;;;;;906509;155;27394;-75
2022/08/11 15:17:16;;;;;;;3.17;1.70;;;33.50;26.30;;;;;;904528;155;27562;-76
2022/08/11 15:25:12;;;;;;;1.70;1.60;;;33.50;26.20;;;;;;904118;155;27523;-75
2022/08/11 15:38:43;;;;;;;1.77;1.67;;;33.50;26.20;;;;;;909871;155;27326;-75
2022/08/11 15:46:45;;;;;;;1.80;1.70;;;33.60;26.30;;;;;;910239;155;28180;-75
2022/08/11 15:49:15;;;;;;;1.95;1.80;;;33.60;26.40;;;;;;910484;155;27499;-75
2022/08/11 15:51:44;;;;;;;3.83;1.52;;;33.60;26.30;;;;;;909049;155;27408;-75
2022/08/11 15:54:16;;;;;;;1.87;1.70;;;33.60;26.20;;;;;;904787;155;27443;-74
2022/08/11 15:56:43;;;;;;;1.85;1.70;;;33.60;26.10;;;;;;904148;155;27493;-74
2022/08/11 16:04:39;;;;;;;2.17;1.42;;;33.60;26.00;;;;;;905663;155;27401;-74
2022/08/11 16:07:11;;;;;;;2.02;1.50;;;33.60;26.00;;;;;;905279;155;27478;-74
2022/08/11 16:09:49;;;;;;;2.12;1.75;;;33.50;26.10;;;;;;905161;156;27395;-74
2022/08/11 16:12:16;;;;;;;1.55;1.45;;;33.50;26.00;;;;;;904428;155;27411;-74
2022/08/11 16:17:27;;;;;;;1.50;1.40;;;33.40;25.90;;;;;;905220;155;27499;-74
2022/08/11 16:19:53;;;;;;;4.45;1.82;;;33.30;25.90;;;;;;905207;155;27487;-74
2022/08/11 16:22:20;;;;;;;1.92;1.70;;;33.30;25.90;;;;;;905267;155;27416;-75
2022/08/11 16:24:46;;;;;;;1.57;1.47;;;33.30;26.00;;;;;;904939;155;27509;-74
2022/08/11 16:27:13;;;;;;;1.80;1.70;;;33.30;26.00;;;;;;904374;155;27522;-75
2022/08/11 16:29:42;;;;;;;1.60;1.50;;;33.20;26.00;;;;;;905048;155;27385;-74
2022/08/11 16:32:19;;;;;;;3.25;1.70;;;33.20;26.00;;;;;;905196;155;27447;-75
2022/08/11 16:40:14;;;;;;;1.42;1.32;;;33.10;25.80;;;;;;903562;155;27569;-74
2022/08/11 16:48:09;;;;;;;3.67;1.32;;;33.00;25.90;;;;;;903912;155;27495;-74
2022/08/11 16:50:36;;;;;;;2.12;1.65;;;33.00;25.80;;;;;;902938;155;27392;-74
2022/08/11 16:53:03;;;;;;;1.70;1.60;;;33.00;25.90;;;;;;904227;155;27369;-75
2022/08/11 16:55:31;;;;;;;2.42;1.57;;;33.00;25.90;;;;;;903796;155;27869;-74
2022/08/11 17:00:40;;;;;;;2.52;1.72;;;33.00;25.90;;;;;;904308;155;27416;-75
2022/08/11 17:14:21;;;;;;;3.37;1.52;;;32.80;25.90;;;;;;903723;155;27478;-75
2022/08/11 17:16:47;;;;;;;3.90;1.45;;;32.80;25.90;;;;;;891894;155;27384;-75
2022/08/11 17:19:20;;;;;;;2.37;1.70;;;32.80;25.90;;;;;;907224;155;27552;-74
2022/08/11 17:24:31;;;;;;;2.52;1.57;;;32.70;25.90;;;;;;907174;155;27591;-74
2022/08/11 17:26:58;;;;;;;1.50;1.30;;;32.70;26.00;;;;;;907642;155;27407;-74
2022/08/11 17:29:33;;;;;;;1.82;1.72;;;32.60;26.00;;;;;;908783;155;27379;-75
2022/08/11 17:37:32;;;;;;;1.50;1.40;;;32.50;26.00;;;;;;907537;155;28820;-75
2022/08/11 17:39:59;;;;;;;1.57;1.47;;;32.50;26.10;;;;;;909015;155;27576;-74
2022/08/11 17:50:40;;;;;;;1.52;1.42;;;32.30;26.20;;;;;;878056;163;27466;-75
2022/08/11 18:01:20;;;;;;;1.72;1.62;;;32.10;26.40;;;;;;892578;160;27450;-74
2022/08/11 18:03:48;;;;;;;1.87;1.55;;;32.10;26.50;;;;;;893687;158;27453;-75
2022/08/11 18:06:14;;;;;;;3.87;1.80;;;32.00;26.60;;;;;;891254;159;27429;-74
